createdAt,value
2023-05-02T00:00:02.669Z,11.30
2023-05-02T00:01:02.320Z,11.30
2023-05-02T00:02:02.421Z,11.30
2023-05-02T00:03:02.576Z,11.28
2023-05-02T00:04:02.589Z,11.30
2023-05-02T00:05:02.614Z,11.31
2023-05-02T00:06:02.718Z,11.31
2023-05-02T00:07:02.801Z,11.33
2023-05-02T00:08:02.845Z,11.33
2023-05-02T00:09:02.936Z,11.35
2023-05-02T00:10:03.291Z,11.33
2023-05-02T00:11:03.063Z,11.33
2023-05-02T00:12:03.198Z,11.35
2023-05-02T00:13:03.257Z,11.33
2023-05-02T00:14:03.312Z,11.33
2023-05-02T00:15:03.392Z,11.35
2023-05-02T00:16:03.553Z,11.31
2023-05-02T00:17:03.617Z,11.33
2023-05-02T00:18:03.673Z,11.33
2023-05-02T00:19:03.752Z,11.31
2023-05-02T00:20:03.786Z,11.33
2023-05-02T00:21:03.876Z,11.33
2023-05-02T00:22:03.979Z,11.33
2023-05-02T00:23:04.065Z,11.35
2023-05-02T00:24:04.137Z,11.36
2023-05-02T00:25:04.235Z,11.35
2023-05-02T00:26:04.304Z,11.36
2023-05-02T00:27:04.400Z,11.38
2023-05-02T00:28:04.463Z,11.36
2023-05-02T00:29:04.555Z,11.38
2023-05-02T00:30:04.617Z,11.38
2023-05-02T00:31:04.741Z,11.36
2023-05-02T00:32:04.807Z,11.39
2023-05-02T00:33:04.938Z,11.39
2023-05-02T00:34:04.950Z,11.36
2023-05-02T00:35:05.044Z,11.39
2023-05-02T00:36:05.122Z,11.39
2023-05-02T00:37:05.230Z,11.41
2023-05-02T00:38:05.272Z,11.42
2023-05-02T00:39:05.413Z,11.42
2023-05-02T00:40:05.430Z,11.41
2023-05-02T00:41:05.525Z,11.42
2023-05-02T00:42:05.613Z,11.42
2023-05-02T00:43:05.660Z,11.42
2023-05-02T00:44:05.725Z,11.42
2023-05-02T00:45:05.802Z,11.44
2023-05-02T00:46:05.931Z,11.44
2023-05-02T00:47:05.976Z,11.45
2023-05-02T00:48:06.077Z,11.42
2023-05-02T00:49:06.092Z,11.45
2023-05-02T00:50:06.172Z,11.44
2023-05-02T00:51:06.245Z,11.46
2023-05-02T00:52:06.330Z,11.45
2023-05-02T00:53:06.380Z,11.45
2023-05-02T00:54:06.480Z,11.44
2023-05-02T00:55:06.635Z,11.45
2023-05-02T00:56:06.612Z,11.42
2023-05-02T00:57:06.757Z,11.41
2023-05-02T00:58:06.760Z,11.41
2023-05-02T00:59:06.846Z,11.42
2023-05-02T01:00:06.945Z,11.44
2023-05-02T01:01:07.089Z,11.41
2023-05-02T01:02:07.262Z,11.42
2023-05-02T01:03:07.232Z,11.44
2023-05-02T01:04:07.378Z,11.41
2023-05-02T01:05:07.347Z,11.42
2023-05-02T01:06:07.484Z,11.41
2023-05-02T01:07:07.525Z,11.39
2023-05-02T01:08:07.556Z,11.38
2023-05-02T01:09:07.649Z,11.38
2023-05-02T01:10:07.744Z,11.39
2023-05-02T01:11:07.805Z,11.41
2023-05-02T01:12:07.914Z,11.41
2023-05-02T01:13:07.979Z,11.42
2023-05-02T01:14:08.057Z,11.44
2023-05-02T01:15:08.131Z,11.42
2023-05-02T01:16:08.277Z,11.41
2023-05-02T01:17:08.309Z,11.44
2023-05-02T01:18:08.382Z,11.42
2023-05-02T01:19:08.426Z,11.42
2023-05-02T01:20:08.519Z,11.39
2023-05-02T01:21:08.595Z,11.39
2023-05-02T01:22:08.681Z,11.36
2023-05-02T01:23:08.721Z,11.35
2023-05-02T01:24:08.808Z,11.36
2023-05-02T01:25:08.889Z,11.36
2023-05-02T01:26:09.048Z,11.36
2023-05-02T01:27:09.427Z,11.36
2023-05-02T01:28:09.194Z,11.35
2023-05-02T01:29:09.270Z,11.35
2023-05-02T01:30:09.358Z,11.33
2023-05-02T01:31:09.475Z,11.30
2023-05-02T01:32:09.534Z,11.28
2023-05-02T01:33:09.685Z,11.28
2023-05-02T01:34:09.671Z,11.26
2023-05-02T01:35:09.759Z,11.26
2023-05-02T01:36:09.850Z,11.24
2023-05-02T01:37:09.950Z,11.24
2023-05-02T01:38:10.046Z,11.23
2023-05-02T01:39:10.112Z,11.23
2023-05-02T01:40:10.208Z,11.21
2023-05-02T01:41:10.281Z,11.23
2023-05-02T01:42:10.385Z,11.23
2023-05-02T01:43:10.430Z,11.23
2023-05-02T01:44:10.522Z,11.24
2023-05-02T01:45:10.577Z,11.23
2023-05-02T01:46:10.654Z,11.23
2023-05-02T01:47:10.837Z,11.20
2023-05-02T01:48:10.839Z,11.20
2023-05-02T01:49:10.899Z,11.20
2023-05-02T01:50:10.969Z,11.20
2023-05-02T01:51:11.038Z,11.19
2023-05-02T01:52:11.128Z,11.20
2023-05-02T01:53:11.188Z,11.20
2023-05-02T01:54:11.263Z,11.20
2023-05-02T01:55:11.336Z,11.19
2023-05-02T01:56:11.415Z,11.16
2023-05-02T01:57:11.510Z,11.16
2023-05-02T01:58:11.573Z,11.17
2023-05-02T01:59:11.651Z,11.12
2023-05-02T02:00:11.742Z,11.12
2023-05-02T02:01:11.835Z,11.13
2023-05-02T02:02:11.929Z,11.13
2023-05-02T02:03:12.008Z,11.09
2023-05-02T02:04:12.119Z,11.11
2023-05-02T02:05:12.110Z,11.11
2023-05-02T02:06:12.230Z,11.11
2023-05-02T02:07:12.268Z,11.11
2023-05-02T02:08:12.358Z,11.13
2023-05-02T02:09:12.418Z,11.13
2023-05-02T02:10:12.511Z,11.12
2023-05-02T02:11:12.605Z,11.13
2023-05-02T02:12:12.694Z,11.12
2023-05-02T02:13:12.765Z,11.13
2023-05-02T02:14:12.799Z,11.13
2023-05-02T02:15:12.873Z,11.16
2023-05-02T02:16:13.027Z,11.13
2023-05-02T02:17:13.034Z,11.11
2023-05-02T02:18:13.195Z,11.13
2023-05-02T02:19:13.192Z,11.11
2023-05-02T02:20:13.281Z,11.11
2023-05-02T02:21:13.353Z,11.08
2023-05-02T02:22:13.470Z,11.09
2023-05-02T02:23:13.509Z,11.06
2023-05-02T02:24:13.600Z,11.06
2023-05-02T02:25:13.689Z,11.06
2023-05-02T02:26:13.771Z,11.05
2023-05-02T02:27:13.884Z,11.03
2023-05-02T02:28:13.947Z,11.05
2023-05-02T02:29:14.040Z,11.05
2023-05-02T02:30:14.154Z,11.05
2023-05-02T02:31:14.214Z,11.06
2023-05-02T02:32:14.280Z,11.02
2023-05-02T02:33:14.378Z,11.03
2023-05-02T02:34:14.416Z,11.03
2023-05-02T02:35:14.508Z,11.01
2023-05-02T02:36:14.606Z,11.01
2023-05-02T02:37:14.712Z,10.99
2023-05-02T02:38:14.808Z,10.99
2023-05-02T02:39:14.891Z,10.95
2023-05-02T02:40:14.981Z,10.95
2023-05-02T02:41:15.063Z,10.95
2023-05-02T02:42:15.147Z,10.95
2023-05-02T02:43:15.190Z,10.98
2023-05-02T02:44:15.279Z,10.98
2023-05-02T02:45:15.348Z,11.01
2023-05-02T02:46:15.488Z,10.99
2023-05-02T02:47:15.526Z,10.98
2023-05-02T02:48:15.617Z,10.95
2023-05-02T02:49:15.666Z,10.93
2023-05-02T02:50:15.787Z,10.93
2023-05-02T02:51:16.041Z,10.91
2023-05-02T02:52:15.927Z,10.91
2023-05-02T02:53:15.998Z,10.91
2023-05-02T02:54:25.841Z,10.91
2023-05-02T02:55:16.133Z,10.88
2023-05-02T02:56:16.184Z,10.87
2023-05-02T02:57:16.314Z,10.87
2023-05-02T02:58:16.354Z,10.87
2023-05-02T02:59:16.441Z,10.87
2023-05-02T03:00:16.532Z,10.87
2023-05-02T03:01:16.677Z,10.88
2023-05-02T03:02:16.731Z,10.90
2023-05-02T03:03:16.869Z,10.88
2023-05-02T03:04:16.969Z,10.90
2023-05-02T03:05:16.971Z,10.90
2023-05-02T03:06:17.077Z,10.88
2023-05-02T03:07:17.135Z,10.91
2023-05-02T03:08:17.181Z,10.91
2023-05-02T03:09:17.280Z,10.90
2023-05-02T03:10:17.323Z,10.88
2023-05-02T03:11:17.423Z,10.88
2023-05-02T03:12:17.512Z,10.88
2023-05-02T03:13:17.577Z,10.87
2023-05-02T03:14:17.635Z,10.87
2023-05-02T03:15:17.709Z,10.87
2023-05-02T03:16:17.864Z,10.87
2023-05-02T03:17:17.875Z,10.86
2023-05-02T03:18:18.083Z,10.87
2023-05-02T03:19:18.006Z,10.88
2023-05-02T03:20:18.071Z,10.84
2023-05-02T03:21:18.170Z,10.83
2023-05-02T03:22:18.280Z,10.81
2023-05-02T03:23:18.359Z,10.81
2023-05-02T03:24:19.283Z,10.84
2023-05-02T03:25:18.524Z,10.84
2023-05-02T03:26:18.621Z,10.83
2023-05-02T03:27:19.048Z,10.81
2023-05-02T03:28:18.783Z,10.80
2023-05-02T03:29:18.854Z,10.78
2023-05-02T03:30:18.954Z,10.78
2023-05-02T03:31:19.068Z,10.76
2023-05-02T03:32:19.156Z,10.72
2023-05-02T03:33:19.221Z,10.73
2023-05-02T03:34:19.306Z,10.75
2023-05-02T03:35:19.414Z,10.76
2023-05-02T03:36:19.460Z,10.76
2023-05-02T03:37:19.573Z,10.78
2023-05-02T03:38:19.630Z,10.80
2023-05-02T03:39:19.744Z,10.81
2023-05-02T03:40:19.844Z,10.80
2023-05-02T03:41:19.914Z,10.81
2023-05-02T03:42:20.001Z,10.81
2023-05-02T03:43:20.122Z,10.80
2023-05-02T03:44:20.153Z,10.76
2023-05-02T03:45:20.213Z,10.80
2023-05-02T03:46:20.283Z,10.78
2023-05-02T03:47:20.434Z,10.78
2023-05-02T03:48:20.443Z,10.75
2023-05-02T03:49:20.545Z,10.76
2023-05-02T03:50:20.613Z,10.80
2023-05-02T03:51:20.687Z,10.80
2023-05-02T03:52:20.805Z,10.81
2023-05-02T03:53:20.850Z,10.83
2023-05-02T03:54:20.915Z,10.83
2023-05-02T03:55:21.266Z,10.84
2023-05-02T03:56:21.086Z,10.80
2023-05-02T03:57:21.184Z,10.81
2023-05-02T03:58:21.245Z,10.83
2023-05-02T03:59:21.351Z,10.81
2023-05-02T04:00:21.422Z,10.80
2023-05-02T04:01:21.491Z,10.80
2023-05-02T04:02:21.630Z,10.78
2023-05-02T04:03:21.725Z,10.80
2023-05-02T04:04:21.837Z,10.80
2023-05-02T04:05:21.832Z,10.78
2023-05-02T04:06:21.901Z,10.80
2023-05-02T04:07:21.968Z,10.78
2023-05-02T04:08:22.055Z,10.75
2023-05-02T04:09:22.152Z,10.78
2023-05-02T04:10:22.242Z,10.78
2023-05-02T04:11:22.323Z,10.81
2023-05-02T04:12:22.415Z,10.80
2023-05-02T04:13:22.476Z,10.81
2023-05-02T04:14:22.589Z,10.81
2023-05-02T04:15:22.638Z,10.81
2023-05-02T04:16:22.854Z,10.83
2023-05-02T04:17:22.831Z,10.83
2023-05-02T04:18:22.868Z,10.83
2023-05-02T04:19:22.955Z,10.83
2023-05-02T04:20:23.042Z,10.83
2023-05-02T04:21:23.133Z,10.84
2023-05-02T04:22:23.216Z,10.84
2023-05-02T04:23:23.273Z,10.84
2023-05-02T04:24:23.336Z,10.81
2023-05-02T04:25:23.430Z,10.84
2023-05-02T04:26:23.483Z,10.83
2023-05-02T04:27:23.624Z,10.86
2023-05-02T04:28:23.668Z,10.87
2023-05-02T04:29:23.747Z,10.90
2023-05-02T04:30:23.836Z,10.93
2023-05-02T04:31:24.011Z,10.94
2023-05-02T04:32:24.067Z,10.98
2023-05-02T04:33:24.115Z,10.98
2023-05-02T04:34:24.194Z,10.99
2023-05-02T04:35:24.285Z,11.01
2023-05-02T04:36:24.360Z,11.02
2023-05-02T04:37:24.476Z,11.01
2023-05-02T04:38:24.520Z,10.98
2023-05-02T04:39:24.590Z,10.95
2023-05-02T04:40:24.659Z,10.98
2023-05-02T04:41:24.744Z,10.98
2023-05-02T04:42:24.856Z,10.94
2023-05-02T04:43:25.007Z,10.93
2023-05-02T04:44:25.007Z,10.95
2023-05-02T04:45:25.088Z,10.94
2023-05-02T04:46:25.166Z,10.94
2023-05-02T04:47:25.321Z,10.95
2023-05-02T04:48:25.345Z,10.93
2023-05-02T04:49:25.431Z,10.94
2023-05-02T04:50:25.526Z,10.94
2023-05-02T04:51:25.575Z,10.94
2023-05-02T04:52:25.688Z,10.94
2023-05-02T04:53:25.767Z,10.94
2023-05-02T04:54:25.843Z,10.94
2023-05-02T04:55:25.957Z,10.93
2023-05-02T04:56:26.025Z,10.93
2023-05-02T04:57:26.155Z,10.93
2023-05-02T04:58:26.199Z,10.93
2023-05-02T04:59:26.277Z,10.93
2023-05-02T05:00:26.347Z,10.93
2023-05-02T05:01:26.485Z,10.91
2023-05-02T05:02:26.671Z,10.93
2023-05-02T05:03:26.734Z,10.95
2023-05-02T05:04:26.718Z,10.98
2023-05-02T05:05:26.813Z,10.99
2023-05-02T05:06:26.900Z,10.99
2023-05-02T05:07:26.938Z,11.02
2023-05-02T05:08:27.018Z,11.01
2023-05-02T05:09:27.105Z,11.02
2023-05-02T05:10:27.175Z,11.03
2023-05-02T05:11:27.273Z,11.03
2023-05-02T05:12:27.342Z,11.03
2023-05-02T05:13:27.412Z,11.03
2023-05-02T05:14:27.498Z,11.06
2023-05-02T05:15:27.598Z,11.05
2023-05-02T05:16:27.722Z,11.06
2023-05-02T05:17:27.826Z,11.06
2023-05-02T05:18:27.855Z,11.09
2023-05-02T05:19:27.962Z,11.09
2023-05-02T05:20:28.035Z,11.11
2023-05-02T05:21:28.132Z,11.12
2023-05-02T05:22:28.218Z,11.12
2023-05-02T05:23:28.282Z,11.13
2023-05-02T05:24:28.468Z,11.11
2023-05-02T05:25:28.450Z,11.12
2023-05-02T05:26:28.511Z,11.09
2023-05-02T05:27:28.617Z,11.08
2023-05-02T05:28:28.674Z,11.06
2023-05-02T05:29:28.757Z,11.08
2023-05-02T05:30:28.827Z,11.06
2023-05-02T05:31:28.943Z,11.06
2023-05-02T05:32:29.057Z,11.06
2023-05-02T05:33:29.101Z,11.05
2023-05-02T05:34:29.168Z,11.06
2023-05-02T05:35:29.237Z,11.05
2023-05-02T05:36:29.325Z,11.05
2023-05-02T05:37:29.434Z,11.08
2023-05-02T05:38:29.476Z,11.05
2023-05-02T05:39:29.573Z,11.05
2023-05-02T05:40:29.625Z,11.08
2023-05-02T05:41:29.706Z,11.06
2023-05-02T05:42:29.807Z,11.06
2023-05-02T05:43:29.875Z,11.08
2023-05-02T05:44:29.968Z,11.11
2023-05-02T05:45:30.052Z,11.12
2023-05-02T05:46:30.197Z,11.12
2023-05-02T05:47:30.273Z,11.13
2023-05-02T05:48:30.309Z,11.17
2023-05-02T05:49:30.355Z,11.20
2023-05-02T05:50:30.422Z,11.23
2023-05-02T05:51:30.481Z,11.26
2023-05-02T05:52:30.593Z,11.26
2023-05-02T05:53:30.613Z,11.28
2023-05-02T05:54:30.721Z,11.27
2023-05-02T05:55:30.795Z,11.28
2023-05-02T05:56:30.883Z,11.28
2023-05-02T05:57:30.963Z,11.30
2023-05-02T05:58:31.046Z,11.33
2023-05-02T05:59:31.119Z,11.33
2023-05-02T06:00:31.196Z,11.35
2023-05-02T06:01:31.256Z,11.36
2023-05-02T06:02:31.399Z,11.38
2023-05-02T06:03:31.520Z,11.39
2023-05-02T06:04:31.582Z,11.38
2023-05-02T06:05:31.579Z,11.36
2023-05-02T06:06:31.747Z,11.39
2023-05-02T06:07:31.766Z,11.39
2023-05-02T06:08:31.831Z,11.42
2023-05-02T06:09:31.885Z,11.45
2023-05-02T06:10:32.004Z,11.46
2023-05-02T06:11:32.087Z,11.45
2023-05-02T06:12:32.215Z,11.46
2023-05-02T06:13:32.248Z,11.46
2023-05-02T06:14:32.355Z,11.46
2023-05-02T06:15:32.402Z,11.48
2023-05-02T06:16:32.514Z,11.53
2023-05-02T06:17:32.608Z,11.53
2023-05-02T06:18:32.642Z,11.56
2023-05-02T06:19:32.707Z,11.57
2023-05-02T06:20:32.797Z,11.59
2023-05-02T06:21:32.873Z,11.60
2023-05-02T06:22:32.975Z,11.59
2023-05-02T06:23:33.041Z,11.54
2023-05-02T06:24:33.137Z,11.54
2023-05-02T06:25:33.180Z,11.53
2023-05-02T06:26:33.276Z,11.53
2023-05-02T06:27:33.848Z,11.48
2023-05-02T06:28:33.469Z,11.45
2023-05-02T06:29:33.520Z,11.45
2023-05-02T06:30:33.631Z,11.46
2023-05-02T06:31:33.712Z,11.45
2023-05-02T06:32:33.818Z,11.44
2023-05-02T06:33:33.822Z,11.42
2023-05-02T06:34:33.880Z,11.42
2023-05-02T06:35:33.941Z,11.39
2023-05-02T06:36:34.043Z,11.41
2023-05-02T06:37:34.143Z,11.38
2023-05-02T06:38:34.197Z,11.39
2023-05-02T06:39:34.270Z,11.39
2023-05-02T06:40:34.338Z,11.41
2023-05-02T06:41:34.390Z,11.41
2023-05-02T06:42:34.508Z,11.42
2023-05-02T06:43:34.556Z,11.45
2023-05-02T06:44:34.662Z,11.45
2023-05-02T06:45:34.723Z,11.49
2023-05-02T06:46:34.820Z,11.46
2023-05-02T06:47:34.974Z,11.48
2023-05-02T06:48:34.963Z,11.49
2023-05-02T06:49:35.029Z,11.51
2023-05-02T06:50:35.101Z,11.54
2023-05-02T06:51:35.156Z,11.56
2023-05-02T06:52:35.240Z,11.57
2023-05-02T06:53:35.287Z,11.57
2023-05-02T06:54:35.390Z,11.54
2023-05-02T06:55:35.471Z,11.53
2023-05-02T06:56:35.565Z,11.53
2023-05-02T06:57:35.645Z,11.51
2023-05-02T06:58:35.701Z,11.53
2023-05-02T06:59:35.762Z,11.53
2023-05-02T07:00:35.916Z,11.53
2023-05-02T07:01:36.007Z,11.54
2023-05-02T07:02:36.057Z,11.59
2023-05-02T07:03:36.067Z,11.59
2023-05-02T07:04:36.217Z,11.60
2023-05-02T07:05:36.222Z,11.62
2023-05-02T07:06:36.401Z,11.62
2023-05-02T07:07:36.392Z,11.60
2023-05-02T07:08:36.448Z,11.62
2023-05-02T07:09:36.532Z,11.64
2023-05-02T07:10:36.638Z,11.60
2023-05-02T07:11:36.736Z,11.60
2023-05-02T07:12:36.824Z,11.59
2023-05-02T07:13:36.860Z,11.54
2023-05-02T07:14:36.948Z,11.53
2023-05-02T07:15:37.033Z,11.51
2023-05-02T07:16:37.267Z,11.46
2023-05-02T07:17:37.258Z,11.42
2023-05-02T07:18:37.258Z,11.41
2023-05-02T07:19:37.313Z,11.39
2023-05-02T07:20:37.413Z,11.39
2023-05-02T07:21:37.480Z,11.38
2023-05-02T07:22:37.625Z,11.38
2023-05-02T07:23:37.648Z,11.38
2023-05-02T07:24:37.729Z,11.36
2023-05-02T07:25:37.819Z,11.35
2023-05-02T07:26:37.908Z,11.36
2023-05-02T07:27:38.015Z,11.38
2023-05-02T07:28:38.078Z,11.41
2023-05-02T07:29:38.151Z,11.41
2023-05-02T07:30:38.227Z,11.42
2023-05-02T07:31:38.364Z,11.41
2023-05-02T07:32:38.433Z,11.41
2023-05-02T07:33:38.432Z,11.44
2023-05-02T07:34:38.533Z,11.48
2023-05-02T07:35:38.602Z,11.53
2023-05-02T07:36:38.692Z,11.59
2023-05-02T07:37:38.790Z,11.63
2023-05-02T07:38:38.872Z,11.66
2023-05-02T07:39:38.931Z,11.69
2023-05-02T07:40:39.006Z,11.74
2023-05-02T07:41:39.062Z,11.74
2023-05-02T07:42:39.172Z,11.74
2023-05-02T07:43:39.229Z,11.72
2023-05-02T07:44:39.297Z,11.74
2023-05-02T07:45:39.353Z,11.74
2023-05-02T07:46:39.485Z,11.74
2023-05-02T07:47:39.578Z,11.74
2023-05-02T07:48:39.597Z,11.72
2023-05-02T07:49:39.672Z,11.69
2023-05-02T07:50:39.752Z,11.66
2023-05-02T07:51:39.825Z,11.64
2023-05-02T07:52:39.911Z,11.62
2023-05-02T07:53:39.962Z,11.60
2023-05-02T07:54:40.066Z,11.60
2023-05-02T07:55:40.123Z,11.62
2023-05-02T07:56:40.194Z,11.60
2023-05-02T07:57:40.286Z,11.59
2023-05-02T07:58:40.364Z,11.59
2023-05-02T07:59:40.426Z,11.60
2023-05-02T08:00:40.517Z,11.60
2023-05-02T08:01:40.574Z,11.62
2023-05-02T08:02:40.804Z,11.60
2023-05-02T08:03:40.982Z,11.56
2023-05-02T08:04:40.816Z,11.51
2023-05-02T08:05:40.880Z,11.49
2023-05-02T08:06:41.002Z,11.48
2023-05-02T08:07:41.084Z,11.51
2023-05-02T08:08:41.148Z,11.51
2023-05-02T08:09:41.229Z,11.49
2023-05-02T08:10:41.305Z,11.51
2023-05-02T08:11:41.384Z,11.51
2023-05-02T08:12:41.494Z,11.54
2023-05-02T08:13:41.545Z,11.56
2023-05-02T08:14:41.642Z,11.57
2023-05-02T08:15:41.739Z,11.60
2023-05-02T08:16:42.978Z,11.63
2023-05-02T08:17:41.865Z,11.66
2023-05-02T08:18:41.903Z,11.69
2023-05-02T08:19:41.973Z,11.70
2023-05-02T08:20:42.082Z,11.74
2023-05-02T08:21:42.142Z,11.77
2023-05-02T08:22:42.266Z,11.78
2023-05-02T08:23:42.331Z,11.75
2023-05-02T08:24:42.407Z,11.72
2023-05-02T08:25:42.504Z,11.70
2023-05-02T08:26:42.588Z,11.72
2023-05-02T08:27:42.694Z,11.74
2023-05-02T08:28:42.764Z,11.74
2023-05-02T08:29:42.842Z,11.74
2023-05-02T08:30:42.923Z,11.72
2023-05-02T08:31:43.112Z,11.69
2023-05-02T08:32:43.153Z,11.69
2023-05-02T08:33:43.199Z,11.69
2023-05-02T08:34:43.307Z,11.69
2023-05-02T08:35:43.388Z,11.72
2023-05-02T08:36:43.475Z,11.69
2023-05-02T08:37:43.587Z,11.70
2023-05-02T08:38:43.635Z,11.70
2023-05-02T08:39:43.727Z,11.69
2023-05-02T08:40:43.875Z,11.67
2023-05-02T08:41:43.880Z,11.62
2023-05-02T08:42:44.071Z,11.62
2023-05-02T08:43:44.064Z,11.56
2023-05-02T08:44:44.136Z,11.54
2023-05-02T08:45:44.289Z,11.49
2023-05-02T08:46:44.324Z,11.49
2023-05-02T08:47:44.485Z,11.48
2023-05-02T08:48:44.494Z,11.48
2023-05-02T08:49:44.564Z,11.45
2023-05-02T08:50:44.683Z,11.45
2023-05-02T08:51:44.745Z,11.45
2023-05-02T08:52:44.827Z,11.46
2023-05-02T08:53:44.905Z,11.44
2023-05-02T08:54:44.960Z,11.39
2023-05-02T08:55:45.024Z,11.42
2023-05-02T08:56:45.096Z,11.45
2023-05-02T08:57:45.166Z,11.48
2023-05-02T08:58:45.221Z,11.48
2023-05-02T08:59:45.289Z,11.48
2023-05-02T09:00:45.380Z,11.51
2023-05-02T09:01:45.569Z,11.51
2023-05-02T09:02:45.591Z,11.54
2023-05-02T09:03:45.596Z,11.57
2023-05-02T09:04:45.781Z,11.60
2023-05-02T09:05:45.770Z,11.60
2023-05-02T09:06:46.032Z,11.54
2023-05-02T09:07:45.950Z,11.59
2023-05-02T09:08:46.010Z,11.60
2023-05-02T09:09:46.053Z,11.60
2023-05-02T09:10:46.145Z,11.62
2023-05-02T09:11:46.208Z,11.60
2023-05-02T09:12:46.295Z,11.66
2023-05-02T09:13:46.351Z,11.70
2023-05-02T09:14:46.446Z,11.78
2023-05-02T09:15:46.527Z,11.90
2023-05-02T09:16:46.670Z,12.03
2023-05-02T09:17:47.708Z,12.13
2023-05-02T09:18:46.773Z,12.29
2023-05-02T09:19:46.847Z,12.46
2023-05-02T09:20:46.957Z,12.69
2023-05-02T09:21:47.038Z,12.91
2023-05-02T09:22:47.128Z,13.31
2023-05-02T09:23:47.197Z,13.83
2023-05-02T09:24:47.282Z,14.30
2023-05-02T09:25:47.350Z,14.74
2023-05-02T09:26:47.449Z,15.27
2023-05-02T09:27:47.543Z,15.37
2023-05-02T09:28:47.612Z,15.38
2023-05-02T09:29:47.692Z,15.20
2023-05-02T09:30:47.884Z,14.91
2023-05-02T09:31:55.633Z,14.57
2023-05-02T09:32:47.980Z,14.30
2023-05-02T09:33:48.006Z,14.23
2023-05-02T09:34:48.083Z,14.23
2023-05-02T09:35:48.156Z,14.26
2023-05-02T09:36:48.229Z,14.29
2023-05-02T09:37:48.307Z,14.30
2023-05-02T09:38:48.371Z,14.26
2023-05-02T09:39:48.422Z,14.26
2023-05-02T09:40:48.497Z,14.41
2023-05-02T09:41:48.558Z,14.46
2023-05-02T09:42:48.643Z,14.49
2023-05-02T09:43:48.692Z,14.75
2023-05-02T09:44:48.797Z,15.28
2023-05-02T09:45:48.910Z,15.60
2023-05-02T09:46:48.977Z,15.51
2023-05-02T09:47:49.055Z,15.37
2023-05-02T09:48:49.083Z,15.33
2023-05-02T09:49:49.160Z,15.89
2023-05-02T09:50:49.213Z,16.23
2023-05-02T09:51:49.285Z,16.51
2023-05-02T09:52:49.365Z,16.54
2023-05-02T09:53:49.423Z,16.42
2023-05-02T09:54:49.521Z,16.10
2023-05-02T09:55:49.578Z,15.93
2023-05-02T09:56:49.667Z,15.64
2023-05-02T09:57:49.779Z,15.43
2023-05-02T09:58:50.066Z,15.23
2023-05-02T09:59:49.921Z,15.03
2023-05-02T10:00:49.979Z,14.85
2023-05-02T10:01:50.111Z,14.64
2023-05-02T10:02:50.175Z,14.53
2023-05-02T10:03:50.259Z,14.52
2023-05-02T10:04:50.295Z,14.48
2023-05-02T10:05:50.404Z,14.45
2023-05-02T10:06:50.574Z,14.45
2023-05-02T10:07:50.599Z,14.45
2023-05-02T10:08:50.632Z,14.48
2023-05-02T10:09:50.704Z,14.46
2023-05-02T10:10:50.763Z,14.42
2023-05-02T10:11:50.842Z,14.49
2023-05-02T10:12:50.935Z,14.57
2023-05-02T10:13:51.195Z,14.59
2023-05-02T10:14:51.081Z,14.63
2023-05-02T10:15:51.201Z,14.64
2023-05-02T10:16:51.225Z,14.64
2023-05-02T10:17:51.398Z,14.74
2023-05-02T10:18:51.408Z,14.86
2023-05-02T10:19:51.492Z,14.95
2023-05-02T10:20:51.571Z,15.13
2023-05-02T10:21:51.688Z,15.18
2023-05-02T10:22:52.092Z,15.23
2023-05-02T10:23:51.833Z,15.20
2023-05-02T10:24:51.903Z,15.15
2023-05-02T10:25:51.990Z,15.16
2023-05-02T10:26:52.055Z,15.27
2023-05-02T10:27:52.172Z,15.41
2023-05-02T10:28:52.195Z,15.56
2023-05-02T10:29:52.271Z,15.68
2023-05-02T10:30:52.332Z,15.88
2023-05-02T10:31:52.475Z,15.99
2023-05-02T10:32:52.566Z,15.95
2023-05-02T10:33:52.564Z,16.01
2023-05-02T10:34:52.672Z,15.99
2023-05-02T10:35:52.718Z,15.80
2023-05-02T10:36:52.779Z,15.52
2023-05-02T10:37:52.902Z,15.25
2023-05-02T10:38:52.910Z,14.98
2023-05-02T10:39:53.018Z,14.94
2023-05-02T10:40:54.186Z,14.90
2023-05-02T10:41:53.187Z,14.91
2023-05-02T10:42:53.275Z,14.91
2023-05-02T10:43:53.347Z,14.83
2023-05-02T10:44:53.403Z,14.80
2023-05-02T10:45:53.477Z,14.79
2023-05-02T10:46:53.647Z,14.83
2023-05-02T10:47:53.720Z,14.79
2023-05-02T10:48:53.727Z,14.75
2023-05-02T10:49:53.792Z,14.75
2023-05-02T10:50:53.858Z,14.79
2023-05-02T10:51:53.954Z,14.80
2023-05-02T10:52:54.036Z,14.82
2023-05-02T10:53:54.112Z,14.80
2023-05-02T10:54:54.175Z,14.79
2023-05-02T10:55:54.258Z,14.61
2023-05-02T10:56:54.333Z,14.53
2023-05-02T10:57:54.496Z,14.46
2023-05-02T10:58:54.495Z,14.44
2023-05-02T10:59:54.580Z,14.36
2023-05-02T11:00:54.702Z,14.26
2023-05-02T11:01:54.790Z,14.19
2023-05-02T11:02:54.935Z,14.12
2023-05-02T11:03:54.885Z,14.06
2023-05-02T11:04:54.960Z,14.02
2023-05-02T11:05:55.064Z,13.94
2023-05-02T11:06:55.140Z,13.93
2023-05-02T11:07:55.259Z,13.91
2023-05-02T11:08:55.350Z,13.96
2023-05-02T11:09:55.380Z,13.96
2023-05-02T11:10:55.432Z,13.98
2023-05-02T11:11:55.537Z,14.06
2023-05-02T11:12:55.662Z,14.19
2023-05-02T11:13:55.733Z,14.34
2023-05-02T11:14:55.804Z,14.45
2023-05-02T11:15:55.904Z,14.54
2023-05-02T11:16:55.986Z,14.63
2023-05-02T11:17:56.101Z,14.61
2023-05-02T11:18:56.125Z,14.75
2023-05-02T11:19:56.224Z,14.95
2023-05-02T11:20:56.292Z,15.18
2023-05-02T11:21:56.403Z,15.31
2023-05-02T11:22:56.487Z,15.37
2023-05-02T11:23:56.546Z,15.40
2023-05-02T11:24:56.593Z,15.38
2023-05-02T11:25:56.688Z,15.37
2023-05-02T11:26:56.766Z,15.38
2023-05-02T11:27:58.819Z,15.43
2023-05-02T11:28:56.957Z,15.52
2023-05-02T11:29:57.047Z,15.62
2023-05-02T11:30:57.980Z,15.64
2023-05-02T11:31:57.216Z,15.56
2023-05-02T11:32:57.303Z,15.53
2023-05-02T11:33:57.401Z,15.64
2023-05-02T11:34:57.602Z,15.59
2023-05-02T11:35:57.540Z,15.51
2023-05-02T11:36:57.608Z,15.46
2023-05-02T11:37:57.672Z,15.44
2023-05-02T11:38:57.775Z,15.38
2023-05-02T11:39:57.831Z,15.31
2023-05-02T11:40:57.911Z,15.22
2023-05-02T11:41:58.003Z,15.20
2023-05-02T11:42:58.065Z,15.13
2023-05-02T11:43:58.171Z,15.12
2023-05-02T11:44:58.717Z,15.16
2023-05-02T11:45:58.331Z,15.12
2023-05-02T11:46:58.351Z,15.04
2023-05-02T11:47:58.483Z,14.95
2023-05-02T11:48:58.538Z,14.93
2023-05-02T11:49:58.598Z,14.90
2023-05-02T11:50:58.672Z,14.94
2023-05-02T11:51:58.771Z,14.97
2023-05-02T11:52:58.864Z,14.93
2023-05-02T11:53:58.962Z,15.09
2023-05-02T11:54:59.206Z,15.04
2023-05-02T11:55:59.084Z,15.04
2023-05-02T11:56:59.182Z,15.07
2023-05-02T11:57:59.254Z,15.11
2023-05-02T11:58:59.349Z,15.16
2023-05-02T11:59:59.411Z,15.28
2023-05-02T12:00:59.462Z,15.30
2023-05-02T12:01:59.558Z,15.30
2023-05-02T12:02:59.678Z,15.22
2023-05-02T12:03:59.781Z,15.12
2023-05-02T12:05:00.046Z,15.25
2023-05-02T12:06:00.000Z,15.28
2023-05-02T12:07:00.001Z,15.35
2023-05-02T12:08:00.079Z,15.46
2023-05-02T12:09:00.165Z,15.51
2023-05-02T12:10:00.302Z,15.49
2023-05-02T12:11:00.330Z,15.44
2023-05-02T12:12:00.409Z,15.48
2023-05-02T12:13:00.492Z,15.55
2023-05-02T12:14:00.643Z,15.53
2023-05-02T12:15:00.952Z,15.58
2023-05-02T12:16:00.773Z,15.60
2023-05-02T12:17:00.784Z,15.68
2023-05-02T12:18:00.953Z,15.77
2023-05-02T12:19:01.018Z,15.74
2023-05-02T12:20:01.065Z,15.81
2023-05-02T12:21:01.236Z,15.78
2023-05-02T12:22:01.175Z,15.76
2023-05-02T12:23:01.256Z,15.68
2023-05-02T12:24:01.354Z,15.53
2023-05-02T12:25:01.668Z,15.52
2023-05-02T12:26:01.519Z,15.51
2023-05-02T12:27:01.582Z,15.64
2023-05-02T12:28:01.659Z,15.66
2023-05-02T12:29:01.737Z,15.71
2023-05-02T12:30:02.079Z,15.70
2023-05-02T12:31:01.895Z,15.71
2023-05-02T12:32:01.981Z,15.76
2023-05-02T12:33:02.023Z,15.81
2023-05-02T12:34:02.102Z,15.77
2023-05-02T12:35:02.172Z,15.80
2023-05-02T12:36:02.243Z,15.76
2023-05-02T12:37:02.319Z,15.68
2023-05-02T12:38:02.396Z,15.73
2023-05-02T12:39:02.471Z,15.71
2023-05-02T12:40:02.947Z,15.67
2023-05-02T12:41:02.601Z,15.67
2023-05-02T12:42:02.921Z,15.70
2023-05-02T12:43:02.777Z,15.71
2023-05-02T12:44:02.889Z,15.66
2023-05-02T12:45:02.927Z,15.64
2023-05-02T12:46:03.011Z,15.67
2023-05-02T12:47:03.127Z,15.51
2023-05-02T12:48:03.194Z,15.52
2023-05-02T12:49:03.260Z,15.52
2023-05-02T12:50:03.473Z,15.55
2023-05-02T12:51:03.366Z,15.53
2023-05-02T12:52:03.452Z,15.58
2023-05-02T12:53:03.529Z,15.70